Time;durP1;ratioP1;P1;durP2;ratioP2;P2;SDS_P1;SDS_P2;PMS_P1;PMS_P2;Temp;Humidity;BMP_temperature;BMP_pressure;BME280_temperature;BME280_humidity;BME280_pressure;Samples;Min_cycle;Max_cycle;Signal;HPM_P1;HPM_P2
2023/07/07 00:02:03;;;;;;;1.45;1.35;;;13.00;99.90;;;;;;5067452;28;20374;-48
2023/07/07 00:04:29;;;;;;;3.28;2.97;;;13.00;99.90;;;;;;5065734;28;20028;-50
2023/07/07 00:06:55;;;;;;;3.83;2.67;;;13.00;99.90;;;;;;5067214;28;20086;-49
2023/07/07 00:09:20;;;;;;;3.67;3.40;;;12.90;99.90;;;;;;5070311;28;20040;-52
2023/07/07 00:11:46;;;;;;;4.50;4.10;;;12.90;99.90;;;;;;5054214;28;20052;-48
2023/07/07 00:14:12;;;;;;;4.82;4.32;;;12.90;99.90;;;;;;5070054;28;20075;-49
2023/07/07 00:16:38;;;;;;;3.22;3.03;;;12.90;99.90;;;;;;5071065;28;20044;-49
2023/07/07 00:19:09;;;;;;;4.38;3.97;;;13.00;99.90;;;;;;5070690;28;20119;-48
2023/07/07 00:21:40;;;;;;;3.45;3.15;;;12.90;99.90;;;;;;5070624;28;20036;-50
2023/07/07 00:24:07;;;;;;;3.35;3.03;;;13.00;99.90;;;;;;5070175;28;20079;-48
2023/07/07 00:26:33;;;;;;;4.90;4.28;;;12.90;99.90;;;;;;5070121;28;20055;-48
2023/07/07 00:28:59;;;;;;;10.13;4.53;;;12.90;99.90;;;;;;5066530;28;20032;-49
2023/07/07 00:31:25;;;;;;;4.38;3.97;;;12.80;99.90;;;;;;5070863;28;20040;-50
2023/07/07 00:33:51;;;;;;;4.40;3.78;;;12.80;99.90;;;;;;5069835;28;20097;-49
2023/07/07 00:36:17;;;;;;;8.57;4.55;;;12.70;99.90;;;;;;5069174;28;20137;-52
2023/07/07 00:38:43;;;;;;;8.35;6.72;;;12.70;99.90;;;;;;5069883;28;20043;-48
2023/07/07 00:41:09;;;;;;;10.15;8.88;;;12.70;99.90;;;;;;5070477;28;20079;-49
2023/07/07 00:43:37;;;;;;;8.25;7.50;;;12.80;99.90;;;;;;5069736;28;20040;-50
2023/07/07 00:46:04;;;;;;;14.38;10.70;;;12.80;99.90;;;;;;5068849;28;20033;-53
2023/07/07 00:48:38;;;;;;;;;;;12.90;99.90;;;;;;5070480;28;20098;-49
2023/07/07 00:51:12;;;;;;;13.75;10.30;;;12.90;99.90;;;;;;5069367;28;20015;-49
2023/07/07 00:53:40;;;;;;;7.97;7.18;;;13.00;99.90;;;;;;5069745;28;20040;-49
2023/07/07 00:56:10;;;;;;;9.85;8.27;;;13.00;99.90;;;;;;5070107;28;20036;-48
2023/07/07 00:58:39;;;;;;;14.43;11.95;;;13.00;99.90;;;;;;5068334;28;20048;-49
2023/07/07 01:01:17;;;;;;;16.17;11.30;;;13.10;99.90;;;;;;5070244;28;20056;-52
2023/07/07 01:03:47;;;;;;;13.43;12.02;;;13.10;99.90;;;;;;5069862;28;20410;-49
2023/07/07 01:06:17;;;;;;;15.70;12.07;;;13.10;99.90;;;;;;5070406;28;20186;-49
2023/07/07 01:08:45;;;;;;;19.60;14.48;;;13.10;99.90;;;;;;5069429;28;20513;-48
2023/07/07 01:11:11;;;;;;;17.58;14.35;;;13.10;99.90;;;;;;5070777;28;20048;-48
2023/07/07 01:13:37;;;;;;;17.90;14.52;;;13.10;99.90;;;;;;5069237;28;20048;-49
2023/07/07 01:16:33;;;;;;;18.25;14.60;;;13.20;99.90;;;;;;5069577;28;20051;-48
2023/07/07 01:19:04;;;;;;;16.77;14.48;;;13.20;99.90;;;;;;5064522;28;20425;-48
2023/07/07 01:21:40;;;;;;;18.50;15.18;;;13.30;99.90;;;;;;5069919;28;20132;-51
2023/07/07 01:24:06;;;;;;;21.63;16.00;;;13.30;99.90;;;;;;5069210;28;20046;-53
2023/07/07 01:26:51;;;;;;;15.68;13.88;;;13.30;99.90;;;;;;5070109;28;20412;-49
2023/07/07 01:29:38;;;;;;;20.33;16.27;;;13.30;99.90;;;;;;5068947;28;20044;-51
2023/07/07 01:32:09;;;;;;;20.30;16.23;;;13.30;99.90;;;;;;5070297;28;20052;-52
2023/07/07 01:34:36;;;;;;;20.08;16.23;;;13.30;99.90;;;;;;5063013;28;20025;-49
2023/07/07 01:37:02;;;;;;;25.15;17.58;;;13.30;99.90;;;;;;5050044;28;20033;-49
2023/07/07 01:39:28;;;;;;;22.05;16.85;;;13.40;99.90;;;;;;5052623;28;20048;-49
2023/07/07 01:42:36;;;;;;;23.67;17.25;;;13.40;99.90;;;;;;5069802;28;20052;-49
2023/07/07 01:45:26;;;;;;;24.65;17.15;;;13.40;99.90;;;;;;5068553;28;20044;-51
2023/07/07 01:47:59;;;;;;;18.80;16.77;;;13.40;99.90;;;;;;5069921;28;20086;-49
2023/07/07 01:50:27;;;;;;;25.60;18.00;;;13.40;99.90;;;;;;5072045;28;20040;-49
2023/07/07 01:53:10;;;;;;;25.52;18.33;;;13.40;99.90;;;;;;5074224;28;20142;-48
2023/07/07 01:55:50;;;;;;;21.17;18.30;;;13.40;99.90;;;;;;5072406;28;20493;-51
2023/07/07 01:58:17;;;;;;;25.27;19.40;;;13.40;99.90;;;;;;5073770;28;20628;-50
2023/07/07 02:00:44;;;;;;;27.73;19.70;;;13.40;99.90;;;;;;5072881;28;20127;-49
2023/07/07 02:03:10;;;;;;;23.17;17.75;;;13.40;99.90;;;;;;5072724;28;20045;-50
2023/07/07 02:05:36;;;;;;;;;;;13.40;99.90;;;;;;5073385;28;20093;-52
2023/07/07 02:08:02;;;;;;;26.80;19.83;;;13.40;99.90;;;;;;5073605;28;19916;-49
2023/07/07 02:10:28;;;;;;;23.85;18.90;;;13.30;99.90;;;;;;5073496;28;20040;-49
2023/07/07 02:12:54;;;;;;;24.60;19.02;;;13.40;99.90;;;;;;5073801;28;20040;-50
2023/07/07 02:15:19;;;;;;;22.75;18.50;;;13.30;99.90;;;;;;5071131;28;20067;-49
2023/07/07 02:17:45;;;;;;;24.90;20.23;;;13.30;99.90;;;;;;5073038;28;20040;-49
2023/07/07 02:20:11;;;;;;;23.67;19.10;;;13.30;99.90;;;;;;5071989;28;20036;-52
2023/07/07 02:22:37;;;;;;;23.42;18.83;;;13.30;99.90;;;;;;5072831;28;20040;-50
2023/07/07 02:25:03;;;;;;;22.45;19.27;;;13.30;99.90;;;;;;5072613;28;20037;-50
2023/07/07 02:27:29;;;;;;;28.15;19.20;;;13.30;99.90;;;;;;5072629;28;20119;-49
2023/07/07 02:29:54;;;;;;;21.58;19.02;;;13.30;99.90;;;;;;5072710;28;20120;-50
2023/07/07 02:32:20;;;;;;;23.67;18.55;;;13.30;99.90;;;;;;5072760;28;20033;-49
2023/07/07 02:34:47;;;;;;;23.60;18.77;;;13.30;99.90;;;;;;5072340;28;20490;-49
2023/07/07 02:37:17;;;;;;;26.77;19.25;;;13.30;99.90;;;;;;5072575;28;20028;-51
2023/07/07 02:39:44;;;;;;;23.65;19.52;;;13.20;99.90;;;;;;5072284;28;20040;-51
2023/07/07 02:42:11;;;;;;;27.55;19.70;;;13.20;99.90;;;;;;5058559;28;20378;-50
2023/07/07 02:44:36;;;;;;;27.23;18.67;;;13.10;99.90;;;;;;5070783;28;20062;-50
2023/07/07 02:47:02;;;;;;;26.30;19.88;;;13.10;99.90;;;;;;5072537;28;20048;-49
2023/07/07 02:49:28;;;;;;;24.95;18.90;;;13.10;99.90;;;;;;5072274;28;20079;-51
2023/07/07 02:51:53;;;;;;;29.15;19.15;;;13.00;99.90;;;;;;5071722;28;20068;-50
2023/07/07 02:54:19;;;;;;;24.05;19.13;;;13.00;99.90;;;;;;5072367;28;20036;-49
2023/07/07 02:56:44;;;;;;;24.03;18.80;;;13.00;99.90;;;;;;5072268;28;20037;-49
2023/07/07 02:59:10;;;;;;;22.33;19.97;;;12.90;99.90;;;;;;5072305;28;20783;-49
2023/07/07 03:01:35;;;;;;;24.23;19.90;;;12.90;99.90;;;;;;5071332;28;20294;-49
2023/07/07 03:04:01;;;;;;;27.98;20.00;;;12.90;99.90;;;;;;5071016;28;20073;-52
2023/07/07 03:06:27;;;;;;;26.05;20.52;;;12.90;99.90;;;;;;5071923;28;20126;-48
2023/07/07 03:08:53;;;;;;;27.23;20.55;;;12.90;99.90;;;;;;5072442;28;20059;-49
2023/07/07 03:11:21;;;;;;;27.67;18.83;;;12.90;99.90;;;;;;5071851;28;20074;-48
2023/07/07 03:13:48;;;;;;;22.38;19.90;;;12.90;99.90;;;;;;5071749;28;20040;-49
2023/07/07 03:16:21;;;;;;;24.15;20.15;;;12.90;99.90;;;;;;5070666;28;20124;-51
2023/07/07 03:18:52;;;;;;;28.10;20.63;;;12.90;99.90;;;;;;5071356;28;20041;-51
2023/07/07 03:21:19;;;;;;;23.25;18.67;;;12.90;99.90;;;;;;5072303;28;20481;-49
2023/07/07 03:23:45;;;;;;;24.25;19.65;;;13.00;99.90;;;;;;5071480;28;20047;-49
2023/07/07 03:26:16;;;;;;;28.13;20.20;;;12.90;99.90;;;;;;5071011;28;20037;-49
2023/07/07 03:28:43;;;;;;;26.15;20.10;;;12.90;99.90;;;;;;5071617;28;20119;-49
2023/07/07 03:31:23;;;;;;;24.95;19.92;;;13.00;99.90;;;;;;5071593;28;20452;-49
2023/07/07 03:33:50;;;;;;;25.60;21.35;;;13.00;99.90;;;;;;5071346;28;20032;-52
2023/07/07 03:36:19;;;;;;;25.20;20.33;;;13.00;99.90;;;;;;5071485;28;20067;-49
2023/07/07 03:38:44;;;;;;;27.13;19.33;;;13.00;99.90;;;;;;5071631;28;20040;-49
2023/07/07 03:41:11;;;;;;;27.53;20.60;;;13.00;99.90;;;;;;5071674;28;20115;-48
2023/07/07 03:43:37;;;;;;;27.98;20.90;;;13.00;99.90;;;;;;5064905;28;20295;-49
2023/07/07 03:46:03;;;;;;;24.90;20.70;;;13.10;99.90;;;;;;5057197;28;20377;-48
2023/07/07 03:48:29;;;;;;;;;;;13.10;99.90;;;;;;5071960;28;20115;-49
2023/07/07 03:51:00;;;;;;;29.95;20.02;;;13.10;99.90;;;;;;5071532;28;20468;-49
2023/07/07 03:53:27;;;;;;;22.05;18.55;;;13.10;99.90;;;;;;5071085;28;20033;-49
2023/07/07 03:55:54;;;;;;;24.63;20.02;;;13.10;99.90;;;;;;5071206;28;20032;-49
2023/07/07 03:58:21;;;;;;;23.17;20.55;;;13.10;99.90;;;;;;5070568;28;20489;-50
2023/07/07 04:00:48;;;;;;;20.23;17.95;;;13.10;99.90;;;;;;5071487;28;20051;-50
2023/07/07 04:03:14;;;;;;;22.10;18.63;;;13.10;99.90;;;;;;5071236;28;20071;-48
2023/07/07 04:05:41;;;;;;;;;;;13.10;99.90;;;;;;5071731;28;20048;-49
2023/07/07 04:08:07;;;;;;;22.10;18.98;;;13.20;99.90;;;;;;5070718;28;20396;-50
2023/07/07 04:10:32;;;;;;;26.70;18.73;;;13.20;99.90;;;;;;5070885;28;20044;-48
2023/07/07 04:12:58;;;;;;;28.65;19.80;;;13.20;99.90;;;;;;5069257;28;20518;-49
2023/07/07 04:15:23;;;;;;;23.60;18.33;;;13.20;99.90;;;;;;5070302;28;20044;-49
2023/07/07 04:17:49;;;;;;;22.02;17.77;;;13.20;99.90;;;;;;5070705;28;20036;-52
2023/07/07 04:20:15;;;;;;;25.08;17.98;;;13.30;99.90;;;;;;5070960;28;20036;-50
2023/07/07 04:22:40;;;;;;;23.70;19.27;;;13.30;99.90;;;;;;5070536;28;20040;-49
2023/07/07 04:25:07;;;;;;;26.65;20.33;;;13.30;99.90;;;;;;5069987;28;20036;-50
2023/07/07 04:27:33;;;;;;;24.23;19.17;;;13.30;99.90;;;;;;5069905;28;20045;-49
2023/07/07 04:29:59;;;;;;;23.63;18.83;;;13.40;99.90;;;;;;5070700;28;20040;-51
2023/07/07 04:32:24;;;;;;;24.98;19.67;;;13.40;99.90;;;;;;5070692;28;20047;-50
2023/07/07 04:34:50;;;;;;;24.17;17.48;;;13.50;99.90;;;;;;5070384;28;20059;-49
2023/07/07 04:37:16;;;;;;;24.63;17.48;;;13.60;99.90;;;;;;5070157;28;20040;-49
2023/07/07 04:39:42;;;;;;;25.65;17.27;;;13.60;99.90;;;;;;5070299;28;20463;-49
2023/07/07 04:42:07;;;;;;;24.23;18.15;;;13.60;99.90;;;;;;5069597;28;20036;-49
2023/07/07 04:44:33;;;;;;;21.50;17.13;;;13.70;99.90;;;;;;5069672;28;20076;-52
2023/07/07 04:46:58;;;;;;;28.75;17.63;;;13.80;99.90;;;;;;5070174;28;20043;-52
2023/07/07 04:49:24;;;;;;;26.50;17.88;;;13.80;99.90;;;;;;5070327;28;20532;-49
2023/07/07 04:51:49;;;;;;;23.15;17.42;;;13.80;99.90;;;;;;5070099;28;20178;-49
2023/07/07 04:54:15;;;;;;;17.80;15.93;;;13.90;99.90;;;;;;5069964;28;20037;-53
2023/07/07 04:56:41;;;;;;;23.17;17.42;;;14.00;99.90;;;;;;5069590;28;20120;-50
2023/07/07 04:59:07;;;;;;;22.50;17.65;;;14.00;99.90;;;;;;5070395;28;20378;-49
2023/07/07 05:01:33;;;;;;;25.73;19.40;;;14.10;99.90;;;;;;5070506;28;20048;-49
2023/07/07 05:04:00;;;;;;;23.75;18.90;;;14.20;99.90;;;;;;5069546;28;20505;-49
2023/07/07 05:06:29;;;;;;;23.10;18.98;;;14.30;99.90;;;;;;5069830;28;20119;-49
2023/07/07 05:08:55;;;;;;;28.85;19.15;;;14.40;99.90;;;;;;5069877;28;20041;-49
2023/07/07 05:11:23;;;;;;;23.23;20.17;;;14.50;99.90;;;;;;5069734;28;20506;-49
2023/07/07 05:13:50;;;;;;;27.27;19.92;;;14.60;99.90;;;;;;5068381;28;20036;-49
2023/07/07 05:16:29;;;;;;;24.45;18.80;;;14.70;99.90;;;;;;5069861;28;20102;-49
2023/07/07 05:18:55;;;;;;;25.17;18.77;;;14.80;99.90;;;;;;5069859;28;20052;-49
2023/07/07 05:21:24;;;;;;;22.10;19.65;;;15.00;99.90;;;;;;5070109;28;20040;-51
2023/07/07 05:23:52;;;;;;;22.60;17.65;;;15.20;99.90;;;;;;5069182;28;20110;-52
2023/07/07 05:26:18;;;;;;;21.85;18.52;;;15.30;99.90;;;;;;5069782;28;20051;-49
2023/07/07 05:28:44;;;;;;;24.52;17.77;;;15.50;99.90;;;;;;5069601;28;20064;-50
2023/07/07 05:31:09;;;;;;;23.98;17.17;;;15.60;99.90;;;;;;5069927;28;20075;-50
2023/07/07 05:33:38;;;;;;;19.42;16.90;;;15.70;99.90;;;;;;5069799;28;20485;-52
2023/07/07 05:36:04;;;;;;;24.55;18.30;;;15.90;99.90;;;;;;5069548;28;20043;-50
2023/07/07 05:38:31;;;;;;;21.38;16.42;;;16.00;99.90;;;;;;5069363;28;20401;-50
2023/07/07 05:40:56;;;;;;;;;;;16.20;99.90;;;;;;5069433;28;20041;-50
2023/07/07 05:43:24;;;;;;;18.10;16.20;;;16.30;99.90;;;;;;5069483;28;19995;-50
2023/07/07 05:46:00;;;;;;;19.10;14.25;;;16.50;99.90;;;;;;5068414;28;20115;-49
2023/07/07 05:48:26;;;;;;;16.48;13.60;;;16.60;99.90;;;;;;5065365;28;20303;-52
2023/07/07 05:50:56;;;;;;;18.25;13.15;;;16.80;99.90;;;;;;5061202;28;20485;-52
2023/07/07 05:53:22;;;;;;;19.13;14.02;;;16.90;99.90;;;;;;5061715;28;20098;-54
2023/07/07 05:55:48;;;;;;;18.60;15.27;;;17.00;99.90;;;;;;5065864;28;20024;-49
2023/07/07 05:58:15;;;;;;;17.13;14.93;;;17.10;99.90;;;;;;5069602;28;20033;-49
2023/07/07 06:00:41;;;;;;;18.65;13.25;;;17.20;99.90;;;;;;5064036;28;20028;-50
2023/07/07 06:03:07;;;;;;;17.88;12.20;;;17.30;99.90;;;;;;5064279;28;20037;-50
2023/07/07 06:05:33;;;;;;;14.73;13.18;;;17.40;99.90;;;;;;5062380;28;20036;-52
2023/07/07 06:07:59;;;;;;;;;;;17.50;99.90;;;;;;5060280;28;20032;-51
2023/07/07 06:10:25;;;;;;;17.77;13.32;;;17.60;99.90;;;;;;5065945;28;20446;-52
2023/07/07 06:12:51;;;;;;;14.23;12.38;;;17.70;99.90;;;;;;5060320;28;20036;-52
2023/07/07 06:15:16;;;;;;;21.17;14.10;;;17.80;99.90;;;;;;5066303;28;20126;-51
2023/07/07 06:17:44;;;;;;;18.02;12.43;;;17.90;99.90;;;;;;5066892;28;20421;-50
2023/07/07 06:20:11;;;;;;;15.50;12.25;;;18.00;99.90;;;;;;5066614;28;20094;-51
2023/07/07 06:22:37;;;;;;;20.50;12.38;;;18.10;99.90;;;;;;5069090;28;20115;-52
2023/07/07 06:25:03;;;;;;;17.95;13.07;;;18.10;99.90;;;;;;5069320;28;20124;-50
2023/07/07 06:27:29;;;;;;;14.18;12.35;;;18.20;99.90;;;;;;5067901;28;20047;-50
2023/07/07 06:29:55;;;;;;;14.35;11.18;;;18.30;99.90;;;;;;5068723;28;20044;-50
2023/07/07 06:32:20;;;;;;;13.02;10.30;;;18.50;99.90;;;;;;5063715;28;20029;-51
2023/07/07 06:34:46;;;;;;;13.93;10.68;;;18.50;99.90;;;;;;5068914;28;20043;-49
2023/07/07 06:37:11;;;;;;;14.98;10.60;;;18.60;99.90;;;;;;5072241;28;20040;-50
2023/07/07 06:39:37;;;;;;;13.57;11.70;;;18.70;99.90;;;;;;5072806;28;20046;-50
2023/07/07 06:42:03;;;;;;;15.77;9.00;;;18.80;99.90;;;;;;5072275;28;20129;-55
2023/07/07 06:44:28;;;;;;;12.35;9.70;;;18.90;99.90;;;;;;5071918;28;20048;-50
2023/07/07 06:46:54;;;;;;;15.43;10.88;;;19.10;99.90;;;;;;5073020;28;20040;-49
2023/07/07 06:49:20;;;;;;;11.27;10.20;;;19.10;99.90;;;;;;5071276;28;20047;-49
2023/07/07 06:51:45;;;;;;;11.80;9.30;;;19.30;99.90;;;;;;5072821;28;20040;-52
2023/07/07 06:54:11;;;;;;;9.98;8.55;;;19.30;99.90;;;;;;5070599;28;20509;-51
2023/07/07 06:56:37;;;;;;;10.07;6.65;;;19.50;99.90;;;;;;5072099;28;20071;-51
2023/07/07 06:59:05;;;;;;;;;;;19.60;99.90;;;;;;5072354;28;20058;-50
2023/07/07 07:01:31;;;;;;;12.00;8.13;;;19.70;99.90;;;;;;5071614;28;19956;-50
2023/07/07 07:04:00;;;;;;;14.00;7.43;;;19.70;99.90;;;;;;5066515;28;20090;-50
2023/07/07 07:06:26;;;;;;;16.08;7.78;;;19.80;99.90;;;;;;5072049;28;20501;-50
2023/07/07 07:08:51;;;;;;;;;;;19.90;99.90;;;;;;5071162;28;20047;-51
2023/07/07 07:11:17;;;;;;;11.55;7.78;;;20.00;99.90;;;;;;5065245;28;19925;-50
2023/07/07 07:13:42;;;;;;;;;;;20.10;99.90;;;;;;5071100;28;20374;-50
2023/07/07 07:16:08;;;;;;;7.18;5.18;;;20.30;99.90;;;;;;5068163;28;19924;-49
2023/07/07 07:18:34;;;;;;;10.73;5.70;;;20.40;99.90;;;;;;5070467;28;20036;-50
2023/07/07 07:20:59;;;;;;;11.10;4.45;;;20.50;99.90;;;;;;5070599;28;20091;-53
2023/07/07 07:23:51;;;;;;;8.98;4.22;;;20.60;99.90;;;;;;5065922;28;20037;-53
2023/07/07 07:26:17;;;;;;;9.48;4.82;;;20.70;99.90;;;;;;5044888;28;20029;-49
2023/07/07 07:28:43;;;;;;;6.25;4.88;;;20.80;99.90;;;;;;5073321;28;20413;-52
2023/07/07 07:31:08;;;;;;;8.80;4.88;;;20.90;99.90;;;;;;5075434;28;20036;-50
2023/07/07 07:33:34;;;;;;;;;;;21.00;99.90;;;;;;5077865;28;20481;-53
2023/07/07 07:35:59;;;;;;;11.63;3.97;;;21.10;99.90;;;;;;5066181;28;19920;-49
2023/07/07 07:38:25;;;;;;;;;;;21.20;99.90;;;;;;5071171;28;20044;-50
2023/07/07 07:40:52;;;;;;;13.90;4.28;;;21.20;99.90;;;;;;5073863;28;20373;-53
2023/07/07 07:43:18;;;;;;;6.05;3.78;;;21.30;99.90;;;;;;5066005;28;20036;-53
2023/07/07 07:45:44;;;;;;;5.72;3.25;;;21.40;99.90;;;;;;5067347;28;20781;-52
2023/07/07 07:48:10;;;;;;;;;;;21.50;99.90;;;;;;5068933;28;20140;-53
2023/07/07 07:50:35;;;;;;;4.30;3.05;;;21.60;99.90;;;;;;5069109;28;19970;-49
2023/07/07 07:53:01;;;;;;;;;;;21.60;99.90;;;;;;5070825;28;20405;-53
2023/07/07 07:55:27;;;;;;;5.30;2.28;;;21.70;99.90;;;;;;5066078;28;20328;-51
2023/07/07 07:57:53;;;;;;;6.50;2.72;;;21.70;99.90;;;;;;5071558;28;20036;-50
2023/07/07 08:00:19;;;;;;;;;;;21.80;99.90;;;;;;5068389;28;20658;-51
2023/07/07 08:02:45;;;;;;;6.25;1.85;;;21.90;99.50;;;;;;5070759;28;19915;-50
2023/07/07 08:05:11;;;;;;;;;;;22.00;99.60;;;;;;5067354;28;20554;-52
2023/07/07 08:07:36;;;;;;;7.50;1.77;;;22.00;98.90;;;;;;5066404;28;19920;-52
2023/07/07 08:10:03;;;;;;;;;;;22.20;99.60;;;;;;5068407;28;20425;-52
2023/07/07 08:12:29;;;;;;;8.63;1.60;;;22.30;98.70;;;;;;5070363;28;19921;-49
2023/07/07 08:14:55;;;;;;;;;;;22.30;98.40;;;;;;5067335;28;20035;-52
2023/07/07 08:17:20;;;;;;;4.10;1.60;;;22.40;98.00;;;;;;5068677;28;19916;-52
2023/07/07 08:19:48;;;;;;;2.78;0.90;;;22.40;97.70;;;;;;5067311;28;20044;-51
2023/07/07 08:22:17;;;;;;;4.45;1.52;;;22.60;97.50;;;;;;5069318;28;20464;-50
2023/07/07 08:24:47;;;;;;;8.30;1.42;;;22.60;96.30;;;;;;5067173;28;20040;-51
2023/07/07 08:27:14;;;;;;;48.05;4.60;;;22.60;95.80;;;;;;5063531;28;20077;-49
2023/07/07 08:29:40;;;;;;;3.78;1.10;;;22.70;95.00;;;;;;5065830;28;20070;-54
2023/07/07 08:32:07;;;;;;;3.65;1.52;;;22.90;95.30;;;;;;5068289;28;20044;-51
2023/07/07 08:34:33;;;;;;;4.00;1.02;;;22.90;95.30;;;;;;5070553;28;20489;-54
2023/07/07 08:37:01;;;;;;;;;;;23.00;94.40;;;;;;5070654;28;20070;-52
2023/07/07 08:39:29;;;;;;;3.03;1.05;;;23.00;92.60;;;;;;5069956;28;20119;-53
2023/07/07 08:42:20;;;;;;;4.13;0.82;;;23.20;93.30;;;;;;5067671;28;20044;-50
2023/07/07 08:44:45;;;;;;;2.15;0.75;;;23.30;92.30;;;;;;5067084;28;20044;-50
2023/07/07 08:47:20;;;;;;;;;;;23.40;93.10;;;;;;5067327;28;20036;-49
2023/07/07 08:50:00;;;;;;;2.50;1.10;;;23.50;91.20;;;;;;5069225;28;19916;-49
2023/07/07 08:53:04;;;;;;;2.75;1.15;;;23.50;90.50;;;;;;5067255;28;20186;-51
2023/07/07 08:55:47;;;;;;;1.13;0.60;;;23.50;89.10;;;;;;5064011;28;20032;-52
2023/07/07 08:58:35;;;;;;;6.82;1.02;;;23.60;87.80;;;;;;5070421;28;20048;-51
2023/07/07 09:01:24;;;;;;;2.72;0.90;;;23.60;87.00;;;;;;5069856;28;20077;-52
2023/07/07 09:04:08;;;;;;;2.35;1.13;;;23.60;87.70;;;;;;5065792;28;20068;-52
2023/07/07 09:06:48;;;;;;;3.78;1.17;;;23.80;89.40;;;;;;5065466;28;20036;-49
2023/07/07 09:09:52;;;;;;;3.10;1.23;;;23.80;86.20;;;;;;5064646;28;20099;-50
2023/07/07 09:12:42;;;;;;;2.55;1.05;;;24.00;86.80;;;;;;5024773;28;20060;-50
2023/07/07 09:15:20;;;;;;;1.65;0.95;;;24.10;85.10;;;;;;5021551;28;20128;-50
2023/07/07 09:17:53;;;;;;;3.22;0.95;;;24.20;86.90;;;;;;5020993;28;20034;-53
2023/07/07 09:20:22;;;;;;;2.60;1.10;;;24.20;84.50;;;;;;5018678;28;20065;-50
2023/07/07 09:22:55;;;;;;;4.50;1.08;;;24.30;84.40;;;;;;5019401;28;20203;-52
2023/07/07 09:25:28;;;;;;;3.33;1.10;;;24.30;85.30;;;;;;5017907;28;20499;-50
2023/07/07 09:27:59;;;;;;;4.43;0.65;;;24.30;83.70;;;;;;5027313;28;20482;-53
2023/07/07 09:30:44;;;;;;;1.20;0.95;;;24.40;84.40;;;;;;5026718;28;20057;-50
2023/07/07 09:33:17;;;;;;;1.83;1.00;;;24.40;84.20;;;;;;5025657;28;20037;-53
2023/07/07 09:36:00;;;;;;;3.65;0.85;;;24.50;82.50;;;;;;5022459;28;20103;-52
2023/07/07 09:38:56;;;;;;;4.13;1.05;;;24.60;84.90;;;;;;5022970;28;20517;-53
2023/07/07 09:41:21;;;;;;;2.03;0.85;;;24.70;82.70;;;;;;5025040;28;20049;-49
2023/07/07 09:44:14;;;;;;;2.38;0.68;;;24.80;83.30;;;;;;5023954;28;20048;-49
2023/07/07 09:47:05;;;;;;;8.95;1.85;;;24.80;84.30;;;;;;5023308;28;20046;-49
2023/07/07 09:49:45;;;;;;;3.92;1.20;;;24.90;86.00;;;;;;5067436;28;20039;-52
2023/07/07 09:52:24;;;;;;;4.80;1.30;;;24.90;82.70;;;;;;5058179;28;20094;-51
2023/07/07 09:54:51;;;;;;;4.15;1.55;;;24.90;83.30;;;;;;5052154;28;20059;-56
2023/07/07 09:57:35;;;;;;;3.17;1.00;;;24.90;82.70;;;;;;5059317;28;20040;-54
2023/07/07 10:00:03;;;;;;;5.35;1.20;;;24.80;82.00;;;;;;5063132;28;20032;-52
2023/07/07 10:02:29;;;;;;;4.20;0.95;;;24.90;79.30;;;;;;5059962;28;20040;-51
2023/07/07 10:05:00;;;;;;;4.13;0.90;;;24.90;78.70;;;;;;5058222;28;20036;-49
2023/07/07 10:07:31;;;;;;;4.40;1.02;;;24.90;76.70;;;;;;5063966;28;20033;-57
2023/07/07 10:09:58;;;;;;;3.05;0.85;;;24.90;77.30;;;;;;5061588;28;20441;-52
2023/07/07 10:12:24;;;;;;;4.95;1.05;;;25.00;78.30;;;;;;5066076;28;20040;-50
2023/07/07 10:14:50;;;;;;;2.17;1.13;;;25.10;77.40;;;;;;5064059;28;20696;-50
2023/07/07 10:17:44;;;;;;;3.15;0.90;;;25.20;79.30;;;;;;5065307;28;20032;-53
2023/07/07 10:20:10;;;;;;;2.72;1.13;;;25.20;75.50;;;;;;5064019;28;20037;-50
2023/07/07 10:22:35;;;;;;;2.22;1.08;;;25.20;78.70;;;;;;5068912;28;20482;-50
2023/07/07 10:25:05;;;;;;;2.13;1.13;;;25.30;78.00;;;;;;5067417;28;20036;-50
2023/07/07 10:27:31;;;;;;;1.77;0.85;;;25.40;75.60;;;;;;5066439;28;20393;-54
2023/07/07 10:30:03;;;;;;;1.70;0.93;;;25.50;77.20;;;;;;5064708;28;20035;-53
2023/07/07 10:32:29;;;;;;;1.42;1.00;;;25.40;73.00;;;;;;5061993;28;20304;-49
2023/07/07 10:34:58;;;;;;;1.98;0.93;;;25.50;73.90;;;;;;5060574;28;20117;-50
2023/07/07 10:37:32;;;;;;;2.95;0.85;;;25.50;71.00;;;;;;5066397;28;20095;-53
2023/07/07 10:39:59;;;;;;;3.40;0.95;;;25.60;70.90;;;;;;5064328;28;20040;-55
2023/07/07 10:42:27;;;;;;;3.50;1.15;;;25.60;73.20;;;;;;5060381;28;20075;-50
2023/07/07 10:44:55;;;;;;;3.40;0.80;;;25.60;69.70;;;;;;5067689;28;20131;-54
2023/07/07 10:47:25;;;;;;;1.33;0.60;;;25.70;70.90;;;;;;5061099;28;20501;-54
2023/07/07 10:49:50;;;;;;;4.65;0.80;;;25.80;68.50;;;;;;5066498;28;20119;-50
2023/07/07 10:52:19;;;;;;;1.60;0.68;;;25.80;69.20;;;;;;5067189;28;20607;-50
2023/07/07 10:55:03;;;;;;;4.57;0.73;;;25.90;67.00;;;;;;5068255;28;20111;-54
2023/07/07 10:57:44;;;;;;;3.30;0.85;;;25.90;67.60;;;;;;5063038;28;20036;-54
2023/07/07 11:00:33;;;;;;;2.88;0.60;;;26.00;66.10;;;;;;5064166;28;20066;-50
2023/07/07 11:03:49;;;;;;;2.50;0.57;;;25.90;66.40;;;;;;5060838;28;20112;-50
2023/07/07 11:06:51;;;;;;;1.50;0.90;;;26.10;65.30;;;;;;5039510;28;20044;-50
2023/07/07 11:09:48;;;;;;;1.05;0.70;;;26.10;65.80;;;;;;5065168;28;20078;-54
2023/07/07 11:12:27;;;;;;;1.35;0.60;;;26.30;63.60;;;;;;5064467;28;20045;-55
2023/07/07 11:15:20;;;;;;;2.05;0.80;;;26.20;64.70;;;;;;5068000;28;20052;-54
2023/07/07 11:18:24;;;;;;;1.48;0.75;;;26.20;62.20;;;;;;5063919;28;20036;-50
2023/07/07 11:21:06;;;;;;;2.88;0.98;;;26.10;62.10;;;;;;5065572;28;20036;-53
2023/07/07 11:24:03;;;;;;;2.33;0.93;;;26.20;63.40;;;;;;5068645;28;20056;-50
2023/07/07 11:26:42;;;;;;;1.33;0.55;;;26.10;61.60;;;;;;5064196;28;20728;-55
2023/07/07 11:30:04;;;;;;;2.10;1.48;;;26.10;63.80;;;;;;5065052;28;20139;-52
2023/07/07 11:32:46;;;;;;;2.72;0.80;;;26.20;63.70;;;;;;4968814;28;20161;-54
2023/07/07 11:35:11;;;;;;;1.73;0.73;;;26.30;65.50;;;;;;4981289;28;20046;-50
2023/07/07 11:37:58;;;;;;;1.90;1.00;;;26.30;65.10;;;;;;4984789;28;20658;-50
2023/07/07 11:40:48;;;;;;;1.98;0.80;;;26.20;62.60;;;;;;4987109;28;20339;-52
2023/07/07 11:43:22;;;;;;;0.75;0.55;;;26.30;62.80;;;;;;4982837;28;20050;-51
2023/07/07 11:46:13;;;;;;;5.90;1.50;;;26.30;61.00;;;;;;4988654;28;20050;-53
2023/07/07 11:49:06;;;;;;;3.88;0.80;;;26.40;62.60;;;;;;4985127;28;20622;-50
2023/07/07 11:51:47;;;;;;;2.85;0.80;;;26.40;63.90;;;;;;4984472;28;20141;-52
2023/07/07 11:54:20;;;;;;;2.28;0.90;;;26.30;64.30;;;;;;4985938;28;20181;-52
2023/07/07 11:57:19;;;;;;;1.88;0.95;;;26.30;64.50;;;;;;4987305;28;20059;-50
2023/07/07 11:59:54;;;;;;;3.35;0.65;;;26.40;61.90;;;;;;4952770;28;20392;-50
2023/07/07 12:03:05;;;;;;;4.85;0.82;;;26.50;61.10;;;;;;4990672;28;20220;-50
2023/07/07 12:05:35;;;;;;;1.80;1.00;;;26.60;61.30;;;;;;5065592;28;20033;-52
2023/07/07 12:08:11;;;;;;;3.53;0.73;;;26.60;62.30;;;;;;5068369;28;20498;-50
2023/07/07 12:10:48;;;;;;;3.92;0.85;;;26.50;62.70;;;;;;5069195;28;20041;-50
2023/07/07 12:13:30;;;;;;;3.15;0.57;;;26.60;61.00;;;;;;5068174;28;20031;-55
2023/07/07 12:16:19;;;;;;;2.25;0.98;;;26.70;60.30;;;;;;5063762;28;20076;-49
2023/07/07 12:18:49;;;;;;;1.20;0.90;;;26.80;61.10;;;;;;5065969;28;20071;-52
2023/07/07 12:21:20;;;;;;;1.75;1.08;;;26.80;60.00;;;;;;5065374;28;20072;-51
2023/07/07 12:24:28;;;;;;;1.52;0.73;;;26.80;60.00;;;;;;5061792;28;20297;-53
2023/07/07 12:27:08;;;;;;;4.35;1.17;;;26.70;59.00;;;;;;5032089;28;20117;-49
2023/07/07 12:29:38;;;;;;;1.48;0.90;;;26.70;60.40;;;;;;5065441;28;20049;-56
2023/07/07 12:32:04;;;;;;;2.30;0.90;;;26.80;58.70;;;;;;5067412;28;20040;-50
2023/07/07 12:34:42;;;;;;;3.13;0.80;;;26.80;59.40;;;;;;5063588;28;20047;-49
2023/07/07 12:37:12;;;;;;;4.22;0.85;;;26.90;57.90;;;;;;5065034;28;20028;-51
2023/07/07 12:39:59;;;;;;;0.93;0.73;;;27.00;57.00;;;;;;5061649;28;20118;-49
2023/07/07 12:42:28;;;;;;;8.25;0.77;;;27.10;56.40;;;;;;5067354;28;20044;-51
2023/07/07 12:44:56;;;;;;;3.20;0.95;;;27.20;57.70;;;;;;5067221;28;20353;-51
2023/07/07 12:47:30;;;;;;;1.42;0.60;;;27.30;57.20;;;;;;5064610;28;20048;-55
2023/07/07 12:50:02;;;;;;;2.35;0.75;;;27.30;56.60;;;;;;5068546;28;20032;-52
2023/07/07 12:52:40;;;;;;;1.20;0.90;;;27.40;58.20;;;;;;5065399;28;20408;-50
2023/07/07 12:55:28;;;;;;;2.63;1.40;;;27.50;59.80;;;;;;5067358;28;20032;-50
2023/07/07 12:58:30;;;;;;;1.67;0.88;;;27.60;57.90;;;;;;5065308;28;20420;-50
2023/07/07 13:01:26;;;;;;;1.60;1.00;;;27.60;58.30;;;;;;5065008;28;20044;-54
2023/07/07 13:04:07;;;;;;;2.03;1.00;;;27.70;58.40;;;;;;5060013;28;20513;-50
2023/07/07 13:06:37;;;;;;;2.13;1.58;;;27.60;58.20;;;;;;5064359;28;20115;-55